sensor_id;sensor_type;location;lat;lon;timestamp;P1;durP1;ratioP1;P2;durP2;ratioP2
12585;SDS011;6358;50.760;0.282;2023-04-03T00:01:18;1.40;;;1.10;;
12585;SDS011;6358;50.760;0.282;2023-04-03T00:03:44;1.73;;;1.20;;
12585;SDS011;6358;50.760;0.282;2023-04-03T00:06:11;1.73;;;1.10;;
12585;SDS011;6358;50.760;0.282;2023-04-03T00:08:37;4.07;;;1.10;;
12585;SDS011;6358;50.760;0.282;2023-04-03T00:11:04;2.83;;;1.20;;
12585;SDS011;6358;50.760;0.282;2023-04-03T00:13:31;1.90;;;1.20;;
12585;SDS011;6358;50.760;0.282;2023-04-03T00:15:57;2.00;;;1.20;;
12585;SDS011;6358;50.760;0.282;2023-04-03T00:18:23;1.77;;;1.10;;
12585;SDS011;6358;50.760;0.282;2023-04-03T00:20:49;2.03;;;1.20;;
12585;SDS011;6358;50.760;0.282;2023-04-03T00:23:15;1.43;;;1.07;;
12585;SDS011;6358;50.760;0.282;2023-04-03T00:25:42;3.43;;;1.40;;
12585;SDS011;6358;50.760;0.282;2023-04-03T00:28:08;2.07;;;1.20;;
12585;SDS011;6358;50.760;0.282;2023-04-03T00:30:34;1.87;;;1.20;;
12585;SDS011;6358;50.760;0.282;2023-04-03T00:33:00;1.43;;;1.00;;
12585;SDS011;6358;50.760;0.282;2023-04-03T00:35:27;2.23;;;0.87;;
12585;SDS011;6358;50.760;0.282;2023-04-03T00:37:54;1.30;;;1.03;;
12585;SDS011;6358;50.760;0.282;2023-04-03T00:40:21;1.17;;;0.90;;
12585;SDS011;6358;50.760;0.282;2023-04-03T00:42:49;2.67;;;1.13;;
12585;SDS011;6358;50.760;0.282;2023-04-03T00:45:25;2.60;;;1.20;;
12585;SDS011;6358;50.760;0.282;2023-04-03T00:47:51;1.40;;;0.90;;
12585;SDS011;6358;50.760;0.282;2023-04-03T00:50:17;2.10;;;1.00;;
12585;SDS011;6358;50.760;0.282;2023-04-03T00:52:44;2.40;;;1.10;;
12585;SDS011;6358;50.760;0.282;2023-04-03T00:55:13;2.03;;;0.93;;
12585;SDS011;6358;50.760;0.282;2023-04-03T00:57:39;2.17;;;1.10;;
12585;SDS011;6358;50.760;0.282;2023-04-03T01:00:07;1.80;;;0.97;;
12585;SDS011;6358;50.760;0.282;2023-04-03T01:02:34;1.73;;;1.10;;
12585;SDS011;6358;50.760;0.282;2023-04-03T01:05:00;1.03;;;0.87;;
12585;SDS011;6358;50.760;0.282;2023-04-03T01:07:27;2.20;;;1.40;;
12585;SDS011;6358;50.760;0.282;2023-04-03T01:09:58;1.13;;;1.00;;
12585;SDS011;6358;50.760;0.282;2023-04-03T01:12:29;1.93;;;1.10;;
12585;SDS011;6358;50.760;0.282;2023-04-03T01:14:56;2.47;;;1.20;;
12585;SDS011;6358;50.760;0.282;2023-04-03T01:19:57;1.77;;;1.00;;
12585;SDS011;6358;50.760;0.282;2023-04-03T01:22:33;1.37;;;0.90;;
12585;SDS011;6358;50.760;0.282;2023-04-03T01:25:01;2.07;;;0.90;;
12585;SDS011;6358;50.760;0.282;2023-04-03T01:27:27;2.13;;;0.90;;
12585;SDS011;6358;50.760;0.282;2023-04-03T01:29:53;2.93;;;0.97;;
12585;SDS011;6358;50.760;0.282;2023-04-03T01:32:19;1.70;;;1.00;;
12585;SDS011;6358;50.760;0.282;2023-04-03T01:34:46;2.07;;;1.13;;
12585;SDS011;6358;50.760;0.282;2023-04-03T01:37:12;1.80;;;1.07;;
12585;SDS011;6358;50.760;0.282;2023-04-03T01:39:38;1.90;;;0.90;;
12585;SDS011;6358;50.760;0.282;2023-04-03T01:42:04;2.10;;;0.90;;
12585;SDS011;6358;50.760;0.282;2023-04-03T01:44:30;1.70;;;0.90;;
12585;SDS011;6358;50.760;0.282;2023-04-03T01:46:56;1.17;;;0.90;;
12585;SDS011;6358;50.760;0.282;2023-04-03T01:49:22;1.43;;;0.90;;
12585;SDS011;6358;50.760;0.282;2023-04-03T01:51:48;1.50;;;1.00;;
12585;SDS011;6358;50.760;0.282;2023-04-03T01:54:14;1.27;;;0.77;;
12585;SDS011;6358;50.760;0.282;2023-04-03T01:56:41;1.73;;;0.97;;
12585;SDS011;6358;50.760;0.282;2023-04-03T01:59:07;1.50;;;0.90;;
12585;SDS011;6358;50.760;0.282;2023-04-03T02:01:33;3.40;;;0.87;;
12585;SDS011;6358;50.760;0.282;2023-04-03T02:03:59;2.50;;;1.10;;
12585;SDS011;6358;50.760;0.282;2023-04-03T02:06:25;2.20;;;1.10;;
12585;SDS011;6358;50.760;0.282;2023-04-03T02:08:51;1.50;;;0.97;;
12585;SDS011;6358;50.760;0.282;2023-04-03T02:11:18;2.13;;;0.90;;
12585;SDS011;6358;50.760;0.282;2023-04-03T02:13:44;2.50;;;1.10;;
12585;SDS011;6358;50.760;0.282;2023-04-03T02:16:10;2.97;;;1.00;;
12585;SDS011;6358;50.760;0.282;2023-04-03T02:18:37;1.40;;;0.80;;
12585;SDS011;6358;50.760;0.282;2023-04-03T02:21:04;1.83;;;0.80;;
12585;SDS011;6358;50.760;0.282;2023-04-03T02:23:30;2.47;;;1.10;;
12585;SDS011;6358;50.760;0.282;2023-04-03T02:26:10;2.23;;;0.87;;
12585;SDS011;6358;50.760;0.282;2023-04-03T02:28:36;2.50;;;0.90;;
12585;SDS011;6358;50.760;0.282;2023-04-03T02:31:03;2.03;;;0.97;;
12585;SDS011;6358;50.760;0.282;2023-04-03T02:33:31;2.40;;;0.90;;
12585;SDS011;6358;50.760;0.282;2023-04-03T02:35:57;2.03;;;0.70;;
12585;SDS011;6358;50.760;0.282;2023-04-03T02:38:24;1.70;;;0.97;;
12585;SDS011;6358;50.760;0.282;2023-04-03T02:40:50;1.60;;;0.80;;
12585;SDS011;6358;50.760;0.282;2023-04-03T02:43:17;1.63;;;1.00;;
12585;SDS011;6358;50.760;0.282;2023-04-03T02:45:43;1.07;;;0.70;;
12585;SDS011;6358;50.760;0.282;2023-04-03T02:48:09;1.83;;;1.10;;
12585;SDS011;6358;50.760;0.282;2023-04-03T02:50:35;0.90;;;0.63;;
12585;SDS011;6358;50.760;0.282;2023-04-03T02:53:01;1.07;;;0.80;;
12585;SDS011;6358;50.760;0.282;2023-04-03T02:55:27;2.70;;;0.90;;
12585;SDS011;6358;50.760;0.282;2023-04-03T02:57:54;1.63;;;0.90;;
12585;SDS011;6358;50.760;0.282;2023-04-03T03:00:20;1.50;;;0.90;;
12585;SDS011;6358;50.760;0.282;2023-04-03T03:02:46;1.10;;;0.70;;
12585;SDS011;6358;50.760;0.282;2023-04-03T03:05:12;2.43;;;1.03;;
12585;SDS011;6358;50.760;0.282;2023-04-03T03:07:38;0.90;;;0.80;;
12585;SDS011;6358;50.760;0.282;2023-04-03T03:10:04;2.57;;;0.90;;
12585;SDS011;6358;50.760;0.282;2023-04-03T03:12:30;1.67;;;1.10;;
12585;SDS011;6358;50.760;0.282;2023-04-03T03:14:56;2.40;;;1.10;;
12585;SDS011;6358;50.760;0.282;2023-04-03T03:17:22;2.20;;;1.10;;
12585;SDS011;6358;50.760;0.282;2023-04-03T03:19:48;2.27;;;1.20;;
12585;SDS011;6358;50.760;0.282;2023-04-03T03:22:15;3.83;;;1.10;;
12585;SDS011;6358;50.760;0.282;2023-04-03T03:24:42;2.37;;;1.00;;
12585;SDS011;6358;50.760;0.282;2023-04-03T03:27:08;2.53;;;0.90;;
12585;SDS011;6358;50.760;0.282;2023-04-03T03:29:34;2.93;;;1.00;;
12585;SDS011;6358;50.760;0.282;2023-04-03T03:32:00;1.83;;;0.80;;
12585;SDS011;6358;50.760;0.282;2023-04-03T03:34:26;2.47;;;0.77;;
12585;SDS011;6358;50.760;0.282;2023-04-03T03:36:52;1.00;;;0.90;;
12585;SDS011;6358;50.760;0.282;2023-04-03T03:39:18;1.67;;;0.83;;
12585;SDS011;6358;50.760;0.282;2023-04-03T03:41:44;1.10;;;0.87;;
12585;SDS011;6358;50.760;0.282;2023-04-03T03:44:10;0.87;;;0.80;;
12585;SDS011;6358;50.760;0.282;2023-04-03T03:46:36;2.37;;;0.93;;
12585;SDS011;6358;50.760;0.282;2023-04-03T03:49:02;2.10;;;0.97;;
12585;SDS011;6358;50.760;0.282;2023-04-03T03:51:28;3.07;;;1.00;;
12585;SDS011;6358;50.760;0.282;2023-04-03T03:53:55;1.77;;;0.80;;
12585;SDS011;6358;50.760;0.282;2023-04-03T03:56:21;1.57;;;0.90;;
12585;SDS011;6358;50.760;0.282;2023-04-03T03:58:47;1.00;;;0.73;;
12585;SDS011;6358;50.760;0.282;2023-04-03T04:01:14;1.90;;;0.80;;
12585;SDS011;6358;50.760;0.282;2023-04-03T04:03:41;1.60;;;0.97;;
12585;SDS011;6358;50.760;0.282;2023-04-03T04:06:07;1.67;;;1.00;;
12585;SDS011;6358;50.760;0.282;2023-04-03T04:08:34;3.23;;;1.10;;
12585;SDS011;6358;50.760;0.282;2023-04-03T04:11:00;1.30;;;0.80;;
12585;SDS011;6358;50.760;0.282;2023-04-03T04:13:26;1.77;;;0.97;;
12585;SDS011;6358;50.760;0.282;2023-04-03T04:15:52;2.33;;;1.10;;
12585;SDS011;6358;50.760;0.282;2023-04-03T04:18:18;1.87;;;1.00;;
12585;SDS011;6358;50.760;0.282;2023-04-03T04:20:46;1.83;;;0.97;;
12585;SDS011;6358;50.760;0.282;2023-04-03T04:23:12;4.83;;;1.10;;
12585;SDS011;6358;50.760;0.282;2023-04-03T04:25:38;2.50;;;1.00;;
12585;SDS011;6358;50.760;0.282;2023-04-03T04:28:04;1.50;;;0.80;;
12585;SDS011;6358;50.760;0.282;2023-04-03T04:30:31;1.40;;;0.90;;
12585;SDS011;6358;50.760;0.282;2023-04-03T04:32:57;1.23;;;0.67;;
12585;SDS011;6358;50.760;0.282;2023-04-03T04:35:23;2.63;;;1.20;;
12585;SDS011;6358;50.760;0.282;2023-04-03T04:37:49;1.63;;;0.90;;
12585;SDS011;6358;50.760;0.282;2023-04-03T04:40:15;1.50;;;0.90;;
12585;SDS011;6358;50.760;0.282;2023-04-03T04:42:42;2.83;;;1.13;;
12585;SDS011;6358;50.760;0.282;2023-04-03T04:45:08;1.57;;;1.10;;
12585;SDS011;6358;50.760;0.282;2023-04-03T04:47:34;1.70;;;1.00;;
12585;SDS011;6358;50.760;0.282;2023-04-03T04:50:00;2.33;;;1.00;;
12585;SDS011;6358;50.760;0.282;2023-04-03T04:52:26;1.63;;;0.90;;
12585;SDS011;6358;50.760;0.282;2023-04-03T04:54:52;1.90;;;1.10;;
12585;SDS011;6358;50.760;0.282;2023-04-03T04:57:18;1.37;;;1.20;;
12585;SDS011;6358;50.760;0.282;2023-04-03T04:59:45;1.93;;;1.00;;
12585;SDS011;6358;50.760;0.282;2023-04-03T05:02:11;1.77;;;1.00;;
12585;SDS011;6358;50.760;0.282;2023-04-03T05:04:37;2.03;;;0.93;;
12585;SDS011;6358;50.760;0.282;2023-04-03T05:07:03;1.50;;;0.80;;
12585;SDS011;6358;50.760;0.282;2023-04-03T05:09:29;1.93;;;1.10;;
12585;SDS011;6358;50.760;0.282;2023-04-03T05:11:55;1.00;;;0.80;;
12585;SDS011;6358;50.760;0.282;2023-04-03T05:14:22;2.77;;;1.10;;
12585;SDS011;6358;50.760;0.282;2023-04-03T05:16:48;1.53;;;0.90;;
12585;SDS011;6358;50.760;0.282;2023-04-03T05:19:18;2.07;;;1.13;;
12585;SDS011;6358;50.760;0.282;2023-04-03T05:21:44;2.37;;;1.00;;
12585;SDS011;6358;50.760;0.282;2023-04-03T05:24:10;1.53;;;1.00;;
12585;SDS011;6358;50.760;0.282;2023-04-03T05:26:36;2.00;;;1.00;;
12585;SDS011;6358;50.760;0.282;2023-04-03T05:29:03;1.57;;;0.83;;
12585;SDS011;6358;50.760;0.282;2023-04-03T05:31:29;2.57;;;1.17;;
12585;SDS011;6358;50.760;0.282;2023-04-03T05:33:56;1.87;;;1.10;;
12585;SDS011;6358;50.760;0.282;2023-04-03T05:36:22;2.13;;;1.10;;
12585;SDS011;6358;50.760;0.282;2023-04-03T05:38:48;1.77;;;1.00;;
12585;SDS011;6358;50.760;0.282;2023-04-03T05:41:14;1.90;;;1.13;;
12585;SDS011;6358;50.760;0.282;2023-04-03T05:43:40;3.03;;;1.30;;
12585;SDS011;6358;50.760;0.282;2023-04-03T05:46:09;2.73;;;1.30;;
12585;SDS011;6358;50.760;0.282;2023-04-03T05:48:35;2.73;;;1.10;;
12585;SDS011;6358;50.760;0.282;2023-04-03T05:51:02;2.07;;;0.97;;
12585;SDS011;6358;50.760;0.282;2023-04-03T05:53:28;1.33;;;1.10;;
12585;SDS011;6358;50.760;0.282;2023-04-03T05:55:55;2.33;;;1.20;;
12585;SDS011;6358;50.760;0.282;2023-04-03T05:58:21;1.70;;;0.90;;
12585;SDS011;6358;50.760;0.282;2023-04-03T06:00:47;1.53;;;1.00;;
12585;SDS011;6358;50.760;0.282;2023-04-03T06:03:13;1.60;;;1.10;;
12585;SDS011;6358;50.760;0.282;2023-04-03T06:05:40;1.60;;;1.00;;
12585;SDS011;6358;50.760;0.282;2023-04-03T06:08:06;1.57;;;1.10;;
12585;SDS011;6358;50.760;0.282;2023-04-03T06:10:34;1.93;;;1.20;;
12585;SDS011;6358;50.760;0.282;2023-04-03T06:13:00;1.97;;;1.20;;
12585;SDS011;6358;50.760;0.282;2023-04-03T06:15:27;2.00;;;1.23;;
12585;SDS011;6358;50.760;0.282;2023-04-03T06:17:53;2.17;;;1.13;;
12585;SDS011;6358;50.760;0.282;2023-04-03T06:20:20;1.63;;;1.00;;
12585;SDS011;6358;50.760;0.282;2023-04-03T06:22:47;2.40;;;0.97;;
12585;SDS011;6358;50.760;0.282;2023-04-03T06:25:13;1.33;;;0.87;;
12585;SDS011;6358;50.760;0.282;2023-04-03T06:27:39;1.80;;;1.07;;
12585;SDS011;6358;50.760;0.282;2023-04-03T06:30:06;2.33;;;1.10;;
12585;SDS011;6358;50.760;0.282;2023-04-03T06:32:32;1.37;;;0.90;;
12585;SDS011;6358;50.760;0.282;2023-04-03T06:34:58;2.03;;;1.00;;
12585;SDS011;6358;50.760;0.282;2023-04-03T06:37:25;1.73;;;1.07;;
12585;SDS011;6358;50.760;0.282;2023-04-03T06:39:53;1.47;;;1.00;;
12585;SDS011;6358;50.760;0.282;2023-04-03T06:42:19;2.57;;;1.03;;
12585;SDS011;6358;50.760;0.282;2023-04-03T06:44:46;1.67;;;1.10;;
12585;SDS011;6358;50.760;0.282;2023-04-03T06:47:15;1.67;;;0.97;;
12585;SDS011;6358;50.760;0.282;2023-04-03T06:49:41;1.70;;;1.13;;
12585;SDS011;6358;50.760;0.282;2023-04-03T06:52:08;6.73;;;1.10;;
12585;SDS011;6358;50.760;0.282;2023-04-03T06:54:34;1.93;;;1.00;;
12585;SDS011;6358;50.760;0.282;2023-04-03T06:57:00;3.87;;;1.50;;
12585;SDS011;6358;50.760;0.282;2023-04-03T06:59:27;4.20;;;1.20;;
12585;SDS011;6358;50.760;0.282;2023-04-03T07:01:53;2.87;;;0.90;;
12585;SDS011;6358;50.760;0.282;2023-04-03T07:04:19;1.63;;;1.10;;
12585;SDS011;6358;50.760;0.282;2023-04-03T07:06:46;2.87;;;1.00;;
12585;SDS011;6358;50.760;0.282;2023-04-03T07:09:13;2.73;;;1.07;;
12585;SDS011;6358;50.760;0.282;2023-04-03T07:11:39;2.07;;;1.20;;
12585;SDS011;6358;50.760;0.282;2023-04-03T07:14:05;2.47;;;1.33;;
12585;SDS011;6358;50.760;0.282;2023-04-03T07:16:33;2.03;;;0.90;;
12585;SDS011;6358;50.760;0.282;2023-04-03T07:18:59;3.97;;;1.40;;
12585;SDS011;6358;50.760;0.282;2023-04-03T07:21:26;3.20;;;1.10;;
12585;SDS011;6358;50.760;0.282;2023-04-03T07:23:53;3.47;;;1.30;;
12585;SDS011;6358;50.760;0.282;2023-04-03T07:26:19;3.60;;;1.10;;
12585;SDS011;6358;50.760;0.282;2023-04-03T07:28:46;3.00;;;1.10;;
12585;SDS011;6358;50.760;0.282;2023-04-03T07:31:13;2.33;;;1.10;;
12585;SDS011;6358;50.760;0.282;2023-04-03T07:33:40;2.53;;;1.10;;
12585;SDS011;6358;50.760;0.282;2023-04-03T07:36:07;2.40;;;1.30;;
12585;SDS011;6358;50.760;0.282;2023-04-03T07:38:34;4.23;;;1.40;;
12585;SDS011;6358;50.760;0.282;2023-04-03T07:41:00;2.30;;;1.00;;
12585;SDS011;6358;50.760;0.282;2023-04-03T07:43:26;3.00;;;1.20;;
12585;SDS011;6358;50.760;0.282;2023-04-03T07:45:53;2.50;;;1.00;;
12585;SDS011;6358;50.760;0.282;2023-04-03T07:48:20;2.63;;;1.00;;
12585;SDS011;6358;50.760;0.282;2023-04-03T07:50:46;4.07;;;1.30;;
12585;SDS011;6358;50.760;0.282;2023-04-03T07:53:13;2.83;;;1.10;;
12585;SDS011;6358;50.760;0.282;2023-04-03T07:55:39;3.33;;;1.40;;
12585;SDS011;6358;50.760;0.282;2023-04-03T07:58:12;2.70;;;1.40;;
12585;SDS011;6358;50.760;0.282;2023-04-03T08:00:39;3.93;;;1.00;;
12585;SDS011;6358;50.760;0.282;2023-04-03T08:03:05;2.87;;;1.30;;
12585;SDS011;6358;50.760;0.282;2023-04-03T08:05:36;4.97;;;1.10;;
12585;SDS011;6358;50.760;0.282;2023-04-03T08:08:02;2.33;;;1.40;;
12585;SDS011;6358;50.760;0.282;2023-04-03T08:10:29;3.23;;;1.20;;
12585;SDS011;6358;50.760;0.282;2023-04-03T08:12:55;3.37;;;1.30;;
12585;SDS011;6358;50.760;0.282;2023-04-03T08:15:22;3.43;;;1.73;;
12585;SDS011;6358;50.760;0.282;2023-04-03T08:17:48;4.03;;;2.80;;
12585;SDS011;6358;50.760;0.282;2023-04-03T08:20:15;5.63;;;3.60;;
12585;SDS011;6358;50.760;0.282;2023-04-03T08:22:41;11.73;;;4.63;;
12585;SDS011;6358;50.760;0.282;2023-04-03T08:25:07;7.27;;;4.13;;
12585;SDS011;6358;50.760;0.282;2023-04-03T08:27:34;5.70;;;4.17;;
12585;SDS011;6358;50.760;0.282;2023-04-03T08:30:00;9.50;;;4.67;;
12585;SDS011;6358;50.760;0.282;2023-04-03T08:32:26;7.00;;;4.60;;
12585;SDS011;6358;50.760;0.282;2023-04-03T08:34:53;7.47;;;4.70;;
12585;SDS011;6358;50.760;0.282;2023-04-03T08:37:19;6.47;;;4.60;;
12585;SDS011;6358;50.760;0.282;2023-04-03T08:39:45;9.60;;;4.67;;
12585;SDS011;6358;50.760;0.282;2023-04-03T08:44:59;7.83;;;4.87;;
12585;SDS011;6358;50.760;0.282;2023-04-03T08:50:06;7.47;;;4.00;;
12585;SDS011;6358;50.760;0.282;2023-04-03T08:52:36;6.87;;;4.13;;
12585;SDS011;6358;50.760;0.282;2023-04-03T08:55:05;7.53;;;4.23;;
12585;SDS011;6358;50.760;0.282;2023-04-03T08:57:39;9.10;;;4.60;;
12585;SDS011;6358;50.760;0.282;2023-04-03T09:00:16;6.47;;;4.33;;
12585;SDS011;6358;50.760;0.282;2023-04-03T09:05:14;8.17;;;4.53;;
12585;SDS011;6358;50.760;0.282;2023-04-03T09:07:53;7.27;;;4.00;;
12585;SDS011;6358;50.760;0.282;2023-04-03T09:10:24;5.50;;;4.30;;
12585;SDS011;6358;50.760;0.282;2023-04-03T09:12:55;6.93;;;4.30;;
12585;SDS011;6358;50.760;0.282;2023-04-03T09:15:24;8.10;;;4.00;;
12585;SDS011;6358;50.760;0.282;2023-04-03T09:22:55;7.77;;;3.70;;
12585;SDS011;6358;50.760;0.282;2023-04-03T09:25:25;5.43;;;3.60;;
12585;SDS011;6358;50.760;0.282;2023-04-03T09:27:53;6.13;;;3.70;;
12585;SDS011;6358;50.760;0.282;2023-04-03T09:30:23;4.93;;;3.20;;
12585;SDS011;6358;50.760;0.282;2023-04-03T09:32:50;5.27;;;3.37;;
12585;SDS011;6358;50.760;0.282;2023-04-03T09:35:21;6.60;;;3.40;;
12585;SDS011;6358;50.760;0.282;2023-04-03T09:37:49;5.37;;;2.93;;
12585;SDS011;6358;50.760;0.282;2023-04-03T09:42:52;6.50;;;3.07;;
12585;SDS011;6358;50.760;0.282;2023-04-03T09:45:24;4.83;;;3.20;;
12585;SDS011;6358;50.760;0.282;2023-04-03T09:50:54;3.93;;;2.60;;
12585;SDS011;6358;50.760;0.282;2023-04-03T09:53:27;4.33;;;2.80;;
12585;SDS011;6358;50.760;0.282;2023-04-03T09:55:54;4.87;;;2.53;;
12585;SDS011;6358;50.760;0.282;2023-04-03T09:58:27;4.83;;;2.77;;
12585;SDS011;6358;50.760;0.282;2023-04-03T10:00:55;3.47;;;2.60;;
12585;SDS011;6358;50.760;0.282;2023-04-03T10:03:25;4.17;;;2.70;;
12585;SDS011;6358;50.760;0.282;2023-04-03T10:05:53;5.87;;;2.97;;
12585;SDS011;6358;50.760;0.282;2023-04-03T10:10:48;3.80;;;2.60;;
12585;SDS011;6358;50.760;0.282;2023-04-03T10:13:18;4.23;;;2.47;;
12585;SDS011;6358;50.760;0.282;2023-04-03T10:15:48;2.93;;;2.50;;
12585;SDS011;6358;50.760;0.282;2023-04-03T10:18:27;4.47;;;2.47;;
12585;SDS011;6358;50.760;0.282;2023-04-03T10:20:57;3.67;;;2.40;;
12585;SDS011;6358;50.760;0.282;2023-04-03T10:28:27;4.33;;;2.20;;
12585;SDS011;6358;50.760;0.282;2023-04-03T10:31:09;3.37;;;2.17;;
12585;SDS011;6358;50.760;0.282;2023-04-03T10:54:43;4.33;;;1.90;;
12585;SDS011;6358;50.760;0.282;2023-04-03T10:56:57;7.50;;;2.37;;
12585;SDS011;6358;50.760;0.282;2023-04-03T11:02:11;5.13;;;1.73;;
12585;SDS011;6358;50.760;0.282;2023-04-03T11:04:41;4.43;;;1.77;;
12585;SDS011;6358;50.760;0.282;2023-04-03T11:07:22;5.17;;;1.70;;
12585;SDS011;6358;50.760;0.282;2023-04-03T11:09:50;4.40;;;1.87;;
12585;SDS011;6358;50.760;0.282;2023-04-03T11:12:24;3.70;;;1.80;;
12585;SDS011;6358;50.760;0.282;2023-04-03T11:14:52;3.77;;;1.83;;
12585;SDS011;6358;50.760;0.282;2023-04-03T11:19:57;4.40;;;1.87;;
12585;SDS011;6358;50.760;0.282;2023-04-03T11:22:30;3.77;;;1.87;;
12585;SDS011;6358;50.760;0.282;2023-04-03T11:27:57;4.27;;;1.87;;
12585;SDS011;6358;50.760;0.282;2023-04-03T11:35:33;4.13;;;1.83;;
12585;SDS011;6358;50.760;0.282;2023-04-03T11:38:01;2.90;;;1.70;;
12585;SDS011;6358;50.760;0.282;2023-04-03T11:40:29;2.00;;;1.70;;
12585;SDS011;6358;50.760;0.282;2023-04-03T11:43:07;3.83;;;1.80;;
12585;SDS011;6358;50.760;0.282;2023-04-03T11:45:50;2.20;;;1.50;;
12585;SDS011;6358;50.760;0.282;2023-04-03T11:50:57;2.40;;;1.57;;
12585;SDS011;6358;50.760;0.282;2023-04-03T11:53:30;2.97;;;1.80;;
12585;SDS011;6358;50.760;0.282;2023-04-03T11:56:01;2.67;;;1.40;;
12585;SDS011;6358;50.760;0.282;2023-04-03T11:58:28;2.43;;;1.50;;
12585;SDS011;6358;50.760;0.282;2023-04-03T12:05:55;3.63;;;1.50;;
12585;SDS011;6358;50.760;0.282;2023-04-03T12:08:27;3.33;;;1.40;;
12585;SDS011;6358;50.760;0.282;2023-04-03T12:16:19;2.67;;;1.70;;
12585;SDS011;6358;50.760;0.282;2023-04-03T12:21:15;3.23;;;1.40;;
12585;SDS011;6358;50.760;0.282;2023-04-03T12:24:03;2.57;;;1.60;;
12585;SDS011;6358;50.760;0.282;2023-04-03T12:26:31;3.33;;;1.50;;
12585;SDS011;6358;50.760;0.282;2023-04-03T12:28:58;5.87;;;1.50;;
12585;SDS011;6358;50.760;0.282;2023-04-03T12:31:25;4.90;;;1.67;;
12585;SDS011;6358;50.760;0.282;2023-04-03T12:34:12;4.83;;;1.60;;
12585;SDS011;6358;50.760;0.282;2023-04-03T12:36:43;7.60;;;1.83;;
12585;SDS011;6358;50.760;0.282;2023-04-03T12:42:02;3.10;;;1.37;;
12585;SDS011;6358;50.760;0.282;2023-04-03T12:46:59;5.50;;;1.57;;
12585;SDS011;6358;50.760;0.282;2023-04-03T12:51:52;4.10;;;1.40;;
12585;SDS011;6358;50.760;0.282;2023-04-03T12:54:19;2.20;;;1.50;;
12585;SDS011;6358;50.760;0.282;2023-04-03T12:56:47;2.87;;;1.60;;
12585;SDS011;6358;50.760;0.282;2023-04-03T13:01:42;4.00;;;1.60;;
12585;SDS011;6358;50.760;0.282;2023-04-03T13:04:10;2.47;;;1.50;;
12585;SDS011;6358;50.760;0.282;2023-04-03T13:06:38;3.23;;;1.73;;
12585;SDS011;6358;50.760;0.282;2023-04-03T13:09:06;2.03;;;1.40;;
12585;SDS011;6358;50.760;0.282;2023-04-03T13:11:34;1.47;;;1.10;;
12585;SDS011;6358;50.760;0.282;2023-04-03T13:14:03;2.17;;;1.30;;
12585;SDS011;6358;50.760;0.282;2023-04-03T13:16:30;3.07;;;1.50;;
12585;SDS011;6358;50.760;0.282;2023-04-03T13:18:57;3.73;;;1.57;;
12585;SDS011;6358;50.760;0.282;2023-04-03T13:21:27;2.00;;;1.30;;
12585;SDS011;6358;50.760;0.282;2023-04-03T13:23:56;3.37;;;1.40;;
12585;SDS011;6358;50.760;0.282;2023-04-03T13:26:23;2.70;;;1.40;;
12585;SDS011;6358;50.760;0.282;2023-04-03T13:28:51;2.60;;;1.30;;
12585;SDS011;6358;50.760;0.282;2023-04-03T13:31:25;4.47;;;1.50;;
12585;SDS011;6358;50.760;0.282;2023-04-03T13:33:53;2.37;;;1.30;;
12585;SDS011;6358;50.760;0.282;2023-04-03T13:36:21;2.67;;;1.53;;
12585;SDS011;6358;50.760;0.282;2023-04-03T13:39:02;1.53;;;1.23;;
12585;SDS011;6358;50.760;0.282;2023-04-03T13:41:33;3.77;;;1.60;;
12585;SDS011;6358;50.760;0.282;2023-04-03T13:46:41;10.20;;;2.10;;
12585;SDS011;6358;50.760;0.282;2023-04-03T13:51:45;9.50;;;1.80;;
12585;SDS011;6358;50.760;0.282;2023-04-03T13:54:23;10.07;;;1.97;;
12585;SDS011;6358;50.760;0.282;2023-04-03T13:56:54;3.73;;;1.60;;
12585;SDS011;6358;50.760;0.282;2023-04-03T13:59:24;3.27;;;1.40;;
12585;SDS011;6358;50.760;0.282;2023-04-03T14:04:29;6.77;;;2.03;;
12585;SDS011;6358;50.760;0.282;2023-04-03T14:06:55;2.37;;;1.40;;
12585;SDS011;6358;50.760;0.282;2023-04-03T14:09:22;4.50;;;1.70;;
12585;SDS011;6358;50.760;0.282;2023-04-03T14:11:49;6.00;;;1.60;;
12585;SDS011;6358;50.760;0.282;2023-04-03T14:14:20;3.33;;;1.50;;
12585;SDS011;6358;50.760;0.282;2023-04-03T14:16:49;5.03;;;1.63;;
12585;SDS011;6358;50.760;0.282;2023-04-03T14:19:18;4.30;;;2.03;;
12585;SDS011;6358;50.760;0.282;2023-04-03T14:21:44;4.43;;;1.43;;
12585;SDS011;6358;50.760;0.282;2023-04-03T14:24:10;3.83;;;1.47;;
12585;SDS011;6358;50.760;0.282;2023-04-03T14:26:37;2.93;;;1.57;;
12585;SDS011;6358;50.760;0.282;2023-04-03T14:29:03;3.57;;;1.50;;
12585;SDS011;6358;50.760;0.282;2023-04-03T14:31:32;4.07;;;1.40;;
12585;SDS011;6358;50.760;0.282;2023-04-03T14:33:59;3.00;;;1.40;;
12585;SDS011;6358;50.760;0.282;2023-04-03T14:36:25;4.47;;;1.43;;
12585;SDS011;6358;50.760;0.282;2023-04-03T14:38:53;1.70;;;1.20;;
12585;SDS011;6358;50.760;0.282;2023-04-03T14:41:20;4.30;;;1.37;;
12585;SDS011;6358;50.760;0.282;2023-04-03T14:43:47;2.17;;;1.40;;
12585;SDS011;6358;50.760;0.282;2023-04-03T14:46:15;4.90;;;1.20;;
12585;SDS011;6358;50.760;0.282;2023-04-03T14:48:41;2.00;;;1.40;;
12585;SDS011;6358;50.760;0.282;2023-04-03T14:51:09;4.80;;;1.23;;
12585;SDS011;6358;50.760;0.282;2023-04-03T14:53:36;3.70;;;1.50;;
12585;SDS011;6358;50.760;0.282;2023-04-03T14:56:04;3.40;;;1.60;;
12585;SDS011;6358;50.760;0.282;2023-04-03T14:58:30;3.40;;;1.50;;
12585;SDS011;6358;50.760;0.282;2023-04-03T15:00:57;6.13;;;1.60;;
12585;SDS011;6358;50.760;0.282;2023-04-03T15:03:23;2.97;;;1.60;;
12585;SDS011;6358;50.760;0.282;2023-04-03T15:05:49;4.50;;;1.30;;
12585;SDS011;6358;50.760;0.282;2023-04-03T15:08:25;2.27;;;1.40;;
12585;SDS011;6358;50.760;0.282;2023-04-03T15:10:54;2.83;;;1.40;;
12585;SDS011;6358;50.760;0.282;2023-04-03T15:13:21;2.20;;;1.43;;
12585;SDS011;6358;50.760;0.282;2023-04-03T15:15:48;2.00;;;1.33;;
12585;SDS011;6358;50.760;0.282;2023-04-03T15:18:15;1.80;;;1.20;;
12585;SDS011;6358;50.760;0.282;2023-04-03T15:20:42;4.13;;;1.50;;
12585;SDS011;6358;50.760;0.282;2023-04-03T15:23:09;2.77;;;1.50;;
12585;SDS011;6358;50.760;0.282;2023-04-03T15:25:36;2.13;;;1.47;;
12585;SDS011;6358;50.760;0.282;2023-04-03T15:28:02;3.27;;;1.50;;
12585;SDS011;6358;50.760;0.282;2023-04-03T15:30:28;2.40;;;1.57;;
12585;SDS011;6358;50.760;0.282;2023-04-03T15:32:54;3.10;;;1.30;;
12585;SDS011;6358;50.760;0.282;2023-04-03T15:35:21;3.47;;;1.33;;
12585;SDS011;6358;50.760;0.282;2023-04-03T15:37:47;5.03;;;1.30;;
12585;SDS011;6358;50.760;0.282;2023-04-03T15:40:13;2.37;;;1.30;;
12585;SDS011;6358;50.760;0.282;2023-04-03T15:42:39;2.87;;;1.30;;
12585;SDS011;6358;50.760;0.282;2023-04-03T15:45:06;1.60;;;1.10;;
12585;SDS011;6358;50.760;0.282;2023-04-03T15:47:32;3.40;;;1.27;;
12585;SDS011;6358;50.760;0.282;2023-04-03T15:49:59;3.63;;;1.27;;
12585;SDS011;6358;50.760;0.282;2023-04-03T15:52:25;1.43;;;1.20;;
12585;SDS011;6358;50.760;0.282;2023-04-03T15:54:51;1.83;;;1.10;;
12585;SDS011;6358;50.760;0.282;2023-04-03T15:57:17;2.47;;;1.40;;
12585;SDS011;6358;50.760;0.282;2023-04-03T15:59:43;3.10;;;1.43;;
12585;SDS011;6358;50.760;0.282;2023-04-03T16:02:09;2.47;;;1.20;;
12585;SDS011;6358;50.760;0.282;2023-04-03T16:04:37;2.83;;;1.50;;
12585;SDS011;6358;50.760;0.282;2023-04-03T16:07:04;3.97;;;1.03;;
12585;SDS011;6358;50.760;0.282;2023-04-03T16:09:31;2.53;;;1.20;;
12585;SDS011;6358;50.760;0.282;2023-04-03T16:11:58;2.40;;;1.10;;
12585;SDS011;6358;50.760;0.282;2023-04-03T16:14:25;1.30;;;1.20;;
12585;SDS011;6358;50.760;0.282;2023-04-03T16:16:53;2.83;;;1.30;;
12585;SDS011;6358;50.760;0.282;2023-04-03T16:19:19;2.30;;;1.23;;
12585;SDS011;6358;50.760;0.282;2023-04-03T16:21:45;1.90;;;1.20;;
12585;SDS011;6358;50.760;0.282;2023-04-03T16:24:11;1.60;;;1.10;;
12585;SDS011;6358;50.760;0.282;2023-04-03T16:26:37;3.00;;;1.33;;
12585;SDS011;6358;50.760;0.282;2023-04-03T16:29:03;2.27;;;1.30;;
12585;SDS011;6358;50.760;0.282;2023-04-03T16:31:30;3.07;;;1.20;;
12585;SDS011;6358;50.760;0.282;2023-04-03T16:33:57;3.97;;;1.57;;
12585;SDS011;6358;50.760;0.282;2023-04-03T16:36:24;2.07;;;1.33;;
12585;SDS011;6358;50.760;0.282;2023-04-03T16:38:50;2.17;;;1.43;;